Current Weather

Goshen Muni

Goshen, Indiana (KGSH)

Report from: Friday, February 23, 2024 1:53 PM EST
Current time: Friday, February 23, 2024 2:24 PM EST

Nearby weather – Weather history – Daily summaries
Weather forecast

Temperature9.4°C (48.9°F)
Wind chill6.0°C (42.7°F)
Dew point0.0°C (32.0°F)
Winds 15 kts (7.7 m/s, 17.3 mph) Northwest (310°)
Wind gusts 20 kts (10.3 m/s, 23 mph)
Visibility10 mi. (16.1 km)
Clouds Few clouds 3,800 ft. (1,158 m)
Altimeter29.64 in.Hg (1004 mB)
Relative humidity52 %
Density altitude-265 ft. (-81 m)
Sea-level pressure100.4 kPa (1004 mB, 29.65 in.Hg)
Remarks Fully automated report
Automated weather observing station with precipitation discriminator
Flight conditions Visual Meteorological Conditions
Raw dataKGSH 231853Z AUTO 31015G20KT 10SM FEW038 09/00 A2964 RMK AO2 SLP041 T00940000
An error has occurred. This application may no longer respond until reloaded. Reload 🗙